Aérodrome :
LOGIN :

S'inscrire | Disclaimer

   EN    FR    IT 

 










Légende :    VFR   VFR Marginal   IFR   IFR Intensif   IFR Très Intensif
Visi : 
Plafond : 
>= 8 km
>= 3000ft
5 à 8 km
1000 à 3000 ft
1500m à 5 km
500 à 1000 ft
800 à 1500m
200 à 500 ft
< 800m
< 200 ft
Symboles :   Orages  Brouillard  Fortes neiges  Fortes précipitations  Vent > 20 kt
SIGMETs :   Divers  Orages  Givrage  Turbulence  Onde Orograph.  Cendres Volcan.






- Altitude de l'aérodrome : 1649 ft
- Code IATA : HHN


EDFH - Frankfurt-Hahn Rhineland-Palatinate

DERNIER METAR :
  • 260550Z 26018G28KT 7000 -RA BKN003 06/06 Q0996

METARs EXPIRÉS :
  • 260520Z 26018G29KT 220V280 9999 -RA BKN005 06/05 Q0996
  • 260450Z 25016KT 7000 BKN006 06/05 Q0996
  • 260420Z 25015G26KT 9999 -RA BKN007 06/05 Q0996
  • 260350Z 25017G29KT 220V280 9999 -RA BKN011 06/04 Q0997
  • 260320Z 25017G28KT 220V280 9999 -DZ BKN012 06/04 Q0997

TAF TAF EDFH
Valide du 26 à 06h jusqu'au 27 à 06h UTC


260500Z 2606/2706 25015G25KT 9999 BKN015
TEMPO 2606/2608 3000 RADZ BKN008
PROB40
TEMPO 2608/2616 BKN008
TEMPO 2612/2618 4000 SHRA BKN012CB
BECMG 2613/2616 27008KT
TEMPO 2618/2706 4000 RA BKN012
PROB40
TEMPO 2618/2706 2500 RADZ BKN004
BECMG 2704/2706 21008KT



MET'MAP, la Météo Aéronautique d'un coup d'oeil ! - Copyright ORBIFLY Décembre 2007 - Disclaimer

ORBIFLY MET'MAP TEAM :

Programmation & Développement : Alexandra Zaïnal
Sur une idée originale de : Baudouin d'Aumeries
Assistance à la programmation : Marc-Olivier Méhu
Soutien technique & logistique : Manuel Goepfert

Contact : metmap@orbifly.com




SOURCES & CREDITS :

   NOAA